Vancouver, Canada
Current Conditions -  °F | °C
As of 10:00 PM on Saturday 20 Dec 2014 (Local Time) from CYVR Reporting Station
Light Rain Light Rain  
Wind Chill: 45°   Ceiling: 5400
Heat Index: 48°   Visibility: 15mi
Dew Point: 46°   Wind: 8mph
Humidity: 93%   Direction: 80°E
Pressure: 29.31"   Gusts: NA
Location:  49.26°N, 123.11°W
Report Text: CYVR 210600Z 08007KT 15SM -RA FEW015 SCT031 OVC054 09/08 A2931 RMK SC1SC2NS5 SLP926
Loading
Personal Weather Stations






























Interactive Weather Map New forecast layout! Learn more

10-Day Weather Forecast

Advertisements
Track Severe Weather on mobile